Fort Pike — WAA9418 — position and weather

sailwx.info

Track history (hours):
 
Tides and Currents Weather Stations Pressure Air Temp Water Temp Dewpoint Dewpoint Depression Visibility Wind Speed Wind Dir Waves Ship Positions

Fort Pike

Owner: Salisbury Towing Corporation, Chesapeak, VA. More information available from US FCC via Universal Licensing System and Coast Guard Vessel Documentation Center.

Last reported at 2015-Jul-28 03:33 UTC. Time now 2015-Jul-29 20:01 UTC.
Position N 37°59' W 075°38'.

Length 18 m; draft 10.5 m.

Type: Tug. MMSI: 366948310.

Date/timePositionNaut miles runAvg speedWind from/ knotsBaromVisibWave heightAir tempDewpointWater temp
2015-Jul-28 03:33N 37°59' W 075°38'3 2.8
2015-Jul-28 02:32N 38°02' W 075°39'29 2.6
2015-Jul-27 15:33N 37°56' W 076°15'7 6.7
2015-Jul-27 14:33N 38°01' W 076°21'6 6.4
2015-Jul-27 13:32N 38°04' W 076°28'14 2.0
2015-Jul-27 06:28N 38°16' W 076°39'33 1.3
2015-Jul-26 05:26N 38°35' W 077°13'42 4.7
2015-Jul-25 20:33N 38°07' W 076°33'7 6.6
2015-Jul-25 19:33N 38°03' W 076°26'6 6.5
2015-Jul-25 18:33N 37°60' W 076°20'  
2015-Jul-23 10:27N 37°56' W 076°15'7 7.3
2015-Jul-23 09:33N 38°00' W 076°21'7 7.1
2015-Jul-23 08:33N 38°04' W 076°28'6 0.2
2015-Jul-22 04:30N 38°08' W 076°34'5 5.3
2015-Jul-22 03:33N 38°05' W 076°29'5 5.5
2015-Jul-22 02:33N 38°01' W 076°23'5 5.4
2015-Jul-22 01:33N 37°58' W 076°18'  
Track history (hours):
 
Tides and Currents Weather Stations Pressure Air Temp Water Temp Dewpoint Dewpoint Depression Visibility Wind Speed Wind Dir Waves Ship Positions

Fort Pike

Owner: Salisbury Towing Corporation, Chesapeak, VA. More information available from US FCC via Universal Licensing System and Coast Guard Vessel Documentation Center.

Last reported at 2015-Jul-28 03:33 UTC. Time now 2015-Jul-29 20:01 UTC.
Position N 37°59' W 075°38'.

Length 18 m; draft 10.5 m.

Type: Tug. MMSI: 366948310.

Date/timePositionNaut miles runAvg speedWind from/ knotsBaromVisibWave heightAir tempDewpointWater temp
2015-Jul-28 03:33N 37°59' W 075°38'3 2.8
2015-Jul-28 02:32N 38°02' W 075°39'29 2.6
2015-Jul-27 15:33N 37°56' W 076°15'7 6.7
2015-Jul-27 14:33N 38°01' W 076°21'6 6.4
2015-Jul-27 13:32N 38°04' W 076°28'14 2.0
2015-Jul-27 06:28N 38°16' W 076°39'33 1.3
2015-Jul-26 05:26N 38°35' W 077°13'42 4.7
2015-Jul-25 20:33N 38°07' W 076°33'7 6.6
2015-Jul-25 19:33N 38°03' W 076°26'6 6.5
2015-Jul-25 18:33N 37°60' W 076°20'  
2015-Jul-23 10:27N 37°56' W 076°15'7 7.3
2015-Jul-23 09:33N 38°00' W 076°21'7 7.1
2015-Jul-23 08:33N 38°04' W 076°28'6 0.2
2015-Jul-22 04:30N 38°08' W 076°34'5 5.3
2015-Jul-22 03:33N 38°05' W 076°29'5 5.5
2015-Jul-22 02:33N 38°01' W 076°23'5 5.4
2015-Jul-22 01:33N 37°58' W 076°18'  

Dump ship's entire track history